Time,TemperatureF,DewpointF,PressureIn,WindDirection,WindDirectionDegrees,WindSpeedMPH,WindSpeedGustMPH,Humidity,HourlyPrecipIn,Conditions,Clouds,dailyrainin,SoftwareType,DateUTC
2013-03-03 00:02:00,50.7,43.4,28.62,NE,45,0.0,0.0,76,0.00,,,0.00,open2300-1.11,2013-03-02 22:02:00,
2013-03-03 00:07:00,50.7,43.4,28.62,NNE,22,0.0,0.0,76,0.00,,,0.00,open2300-1.11,2013-03-02 22:07:00,
2013-03-03 00:12:00,50.7,43.4,28.61,NNE,22,0.0,0.0,76,0.00,,,0.00,open2300-1.11,2013-03-02 22:12:00,
2013-03-03 00:17:00,50.7,43.4,28.61,NNE,22,0.0,0.0,76,0.00,,,0.00,open2300-1.11,2013-03-02 22:17:00,
2013-03-03 00:22:00,50.7,43.4,28.60,NNE,22,4.7,4.7,76,0.00,,,0.00,open2300-1.11,2013-03-02 22:22:00,
2013-03-03 00:47:00,50.9,43.9,28.60,NNE,22,1.6,2.5,77,0.00,,,0.00,open2300-1.11,2013-03-02 22:47:00,
2013-03-03 00:57:00,51.1,44.1,28.60,NNE,22,1.8,1.8,77,0.00,,,0.00,open2300-1.11,2013-03-02 22:57:00,
2013-03-03 01:02:00,51.1,44.1,28.60,NNE,22,3.4,3.4,77,0.00,,,0.00,open2300-1.11,2013-03-02 23:02:00,
2013-03-03 01:17:00,51.1,44.1,28.59,ENE,67,0.0,0.0,77,0.00,,,0.00,open2300-1.11,2013-03-02 23:17:00,
2013-03-03 01:27:00,51.1,44.1,28.59,NE,45,3.8,3.8,77,0.00,,,0.00,open2300-1.11,2013-03-02 23:27:00,
2013-03-03 01:37:00,51.1,44.5,28.59,NE,45,0.0,0.0,78,0.00,,,0.00,open2300-1.11,2013-03-02 23:37:00,
2013-03-03 01:42:00,51.1,44.5,28.59,NNE,22,0.0,2.2,78,0.00,,,0.00,open2300-1.11,2013-03-02 23:42:00,
2013-03-03 01:52:00,51.1,44.5,28.58,NNE,22,0.0,0.0,78,0.00,,,0.00,open2300-1.11,2013-03-02 23:52:00,
2013-03-03 01:57:00,51.1,44.5,28.58,NNE,22,0.0,0.0,78,0.00,,,0.00,open2300-1.11,2013-03-02 23:57:00,
2013-03-03 02:02:00,51.3,44.6,28.58,NNE,22,0.0,0.0,78,0.00,,,0.00,open2300-1.11,2013-03-03 00:02:00,
2013-03-03 02:12:00,51.3,44.6,28.58,NE,45,0.0,0.0,78,0.00,,,0.00,open2300-1.11,2013-03-03 00:12:00,
2013-03-03 02:17:00,51.4,44.8,28.57,NNE,22,0.0,0.0,78,0.00,,,0.00,open2300-1.11,2013-03-03 00:17:00,
2013-03-03 02:37:00,51.4,45.2,28.57,NNE,22,0.0,0.0,79,0.00,,,0.00,open2300-1.11,2013-03-03 00:37:00,
2013-03-03 02:47:00,51.1,45.1,28.56,NNE,22,0.0,0.0,80,0.00,,,0.00,open2300-1.11,2013-03-03 00:47:00,
2013-03-03 02:52:00,51.1,45.1,28.56,NNE,22,0.0,3.8,80,0.00,,,0.00,open2300-1.11,2013-03-03 00:52:00,
2013-03-03 03:02:00,50.7,45.1,28.56,NNE,22,0.0,0.0,81,0.00,,,0.00,open2300-1.11,2013-03-03 01:02:00,
2013-03-03 03:07:00,50.7,45.1,28.56,NE,45,0.0,0.0,81,0.00,,,0.00,open2300-1.11,2013-03-03 01:07:00,
2013-03-03 03:43:00,50.4,45.0,28.54,NE,45,0.0,0.0,82,0.00,,,0.00,open2300-1.11,2013-03-03 01:43:00,
2013-03-03 03:52:00,50.2,44.8,28.53,NNE,22,0.0,2.0,82,0.00,,,0.00,open2300-1.11,2013-03-03 01:52:00,
2013-03-03 04:07:00,50.2,44.8,28.53,NE,45,0.0,0.0,82,0.00,,,0.00,open2300-1.11,2013-03-03 02:07:00,
2013-03-03 04:12:00,49.8,44.5,28.53,NE,45,0.0,0.0,82,0.00,,,0.00,open2300-1.11,2013-03-03 02:12:00,
2013-03-03 04:27:00,49.8,44.5,28.54,NNE,22,0.0,0.0,82,0.00,,,0.00,open2300-1.11,2013-03-03 02:27:00,
2013-03-03 04:32:00,49.8,44.5,28.54,NNE,22,0.0,0.0,82,0.00,,,0.00,open2300-1.11,2013-03-03 02:32:00,
2013-03-03 04:52:00,49.6,44.6,28.54,NNW,337,5.8,5.8,83,0.00,,,0.00,open2300-1.11,2013-03-03 02:52:00,
2013-03-03 05:13:00,49.3,44.3,28.53,NE,45,0.0,1.6,83,0.00,,,0.00,open2300-1.11,2013-03-03 03:13:00,
2013-03-03 05:22:00,49.3,44.3,28.52,NNE,22,2.5,2.5,83,0.00,,,0.00,open2300-1.11,2013-03-03 03:22:00,
2013-03-03 05:32:00,49.1,44.4,28.53,NE,45,0.0,0.0,84,0.00,,,0.00,open2300-1.11,2013-03-03 03:32:00,
2013-03-03 05:42:00,48.9,44.2,28.53,NE,45,0.0,0.9,84,0.00,,,0.00,open2300-1.11,2013-03-03 03:42:00,
2013-03-03 06:17:00,48.7,44.1,28.52,NNE,22,0.0,2.7,84,0.00,,,0.00,open2300-1.11,2013-03-03 04:17:00,
2013-03-03 06:27:00,48.7,43.8,28.52,NNE,22,4.9,4.9,83,0.00,,,0.00,open2300-1.11,2013-03-03 04:27:00,
2013-03-03 06:37:00,48.7,43.8,28.52,NE,45,0.0,3.4,83,0.00,,,0.00,open2300-1.11,2013-03-03 04:37:00,
2013-03-03 06:57:00,48.7,43.8,28.52,NNE,22,0.4,3.4,83,0.00,,,0.00,open2300-1.11,2013-03-03 04:57:00,
2013-03-03 18:33:00,49.6,37.5,28.64,NNE,22,0.0,2.5,63,0.00,,,0.00,open2300-1.11,2013-03-03 16:33:00,
2013-03-03 18:47:00,49.1,37.4,28.65,North,0,0.0,0.0,64,0.00,,,0.00,open2300-1.11,2013-03-03 16:47:00,
2013-03-03 18:57:00,48.9,37.2,28.65,NNE,22,0.0,0.0,64,0.00,,,0.00,open2300-1.11,2013-03-03 16:57:00,
2013-03-03 19:42:00,48.6,37.3,28.67,NNE,22,0.0,0.0,65,0.00,,,0.00,open2300-1.11,2013-03-03 17:42:00,
2013-03-03 20:07:00,48.0,37.2,28.67,NNE,22,0.0,0.0,66,0.00,,,0.00,open2300-1.11,2013-03-03 18:07:00,
2013-03-03 20:17:00,48.0,37.2,28.68,NNE,22,0.0,0.0,66,0.00,,,0.00,open2300-1.11,2013-03-03 18:17:00,
2013-03-03 21:37:00,47.5,36.3,28.69,NNE,22,0.0,0.0,65,0.00,,,0.00,open2300-1.11,2013-03-03 19:37:00,
2013-03-03 21:57:00,47.3,36.5,28.69,NNE,22,0.0,0.0,66,0.00,,,0.00,open2300-1.11,2013-03-03 19:57:00,
2013-03-03 22:07:00,47.3,36.5,28.70,NNE,22,0.0,0.0,66,0.00,,,0.00,open2300-1.11,2013-03-03 20:07:00,
2013-03-03 22:32:00,47.1,36.7,28.70,NNE,22,0.0,0.0,67,0.00,,,0.00,open2300-1.11,2013-03-03 20:32:00,
2013-03-03 22:48:00,47.1,37.1,28.70,NNE,22,0.0,0.0,68,0.00,,,0.00,open2300-1.11,2013-03-03 20:48:00,
2013-03-03 22:53:00,46.9,36.9,28.70,NNE,22,0.0,0.0,68,0.00,,,0.00,open2300-1.11,2013-03-03 20:53:00,
2013-03-03 23:37:00,46.6,37.0,28.71,NNE,22,0.0,0.0,69,0.00,,,0.00,open2300-1.11,2013-03-03 21:37:00,
2013-03-03 23:57:00,46.6,37.4,28.71,NNE,22,0.0,0.0,70,0.00,,,0.00,open2300-1.11,2013-03-03 21:57:00,